Time;durP1;ratioP1;P1;durP2;ratioP2;P2;SDS_P1;SDS_P2;PMS_P1;PMS_P2;Temp;Humidity;BMP_temperature;BMP_pressure;BME280_temperature;BME280_humidity;BME280_pressure;Samples;Min_cycle;Max_cycle;Signal;HPM_P1;HPM_P2
2022/03/29 00:01:39;;;;;;;9.30;4.17;;;;;;;4.28;50.95;100584.17;1796365;78;20977;-72
2022/03/29 00:04:06;;;;;;;16.65;4.08;;;;;;;4.27;51.03;100603.22;1796377;80;21225;-73
2022/03/29 00:06:32;;;;;;;15.05;5.50;;;;;;;4.27;51.05;100596.73;1797137;80;20867;-71
2022/03/29 00:09:01;;;;;;;8.78;4.20;;;;;;;4.24;51.07;100596.39;1797439;80;20930;-72
2022/03/29 00:11:28;;;;;;;13.95;4.03;;;;;;;4.26;51.12;100592.45;1796675;80;21427;-71
2022/03/29 00:13:56;;;;;;;12.53;4.20;;;;;;;4.26;51.00;100579.48;1796548;80;20867;-72
2022/03/29 00:20:58;;;;;;;10.35;3.92;;;;;;;4.34;50.60;100571.83;1796587;80;20915;-72
2022/03/29 00:23:26;;;;;;;9.55;3.92;;;;;;;4.44;50.65;100555.92;1796369;80;21475;-73
2022/03/29 00:25:53;;;;;;;14.83;4.10;;;;;;;4.43;50.66;100568.06;1796509;80;20958;-72
2022/03/29 00:28:20;;;;;;;18.52;5.20;;;;;;;4.44;50.60;100554.62;1796475;80;20906;-72
2022/03/29 00:30:46;;;;;;;13.78;4.35;;;;;;;4.45;50.52;100561.06;1796382;80;21148;-72
2022/03/29 00:33:13;;;;;;;21.17;4.95;;;;;;;4.44;50.24;100546.38;1796312;80;20911;-72
2022/03/29 00:35:41;;;;;;;12.43;4.03;;;;;;;4.49;50.12;100521.11;1796502;80;20914;-73
2022/03/29 00:38:07;;;;;;;12.95;3.92;;;;;;;4.57;50.15;100529.91;1796694;80;20932;-73
2022/03/29 00:40:36;;;;;;;11.30;4.20;;;;;;;4.63;50.31;100518.00;1796373;80;20851;-73
2022/03/29 00:43:04;;;;;;;15.80;4.40;;;;;;;4.63;50.39;100539.23;1796368;79;21469;-72
2022/03/29 00:45:31;;;;;;;17.48;3.72;;;;;;;4.60;50.38;100522.45;1792579;80;20873;-72
2022/03/29 00:47:58;;;;;;;15.03;3.75;;;;;;;4.57;50.79;100516.46;1790580;80;20887;-72
2022/03/29 00:50:25;;;;;;;17.60;4.05;;;;;;;4.54;50.87;100536.06;1790555;80;20879;-71
2022/03/29 00:52:52;;;;;;;16.07;3.90;;;;;;;4.52;50.87;100506.70;1790778;80;21805;-71
2022/03/29 00:55:19;;;;;;;15.70;3.90;;;;;;;4.51;50.96;100524.92;1790441;80;21267;-72
2022/03/29 00:57:46;;;;;;;14.00;3.67;;;;;;;4.50;51.29;100516.30;1790449;79;20946;-73
2022/03/29 01:00:16;;;;;;;13.98;3.62;;;;;;;4.47;51.42;100489.59;1790449;80;20879;-72
2022/03/29 01:02:43;;;;;;;16.42;3.47;;;;;;;4.43;51.92;100506.20;1790511;80;20860;-71
2022/03/29 01:05:11;;;;;;;13.30;2.95;;;;;;;4.37;52.05;100498.17;1790611;80;20930;-72
2022/03/29 01:07:39;;;;;;;16.87;3.60;;;;;;;4.30;52.38;100489.77;1790464;80;21771;-72
2022/03/29 01:10:07;;;;;;;9.75;2.72;;;;;;;4.25;52.46;100501.23;1790437;80;20843;-71
2022/03/29 01:12:36;;;;;;;18.62;4.00;;;;;;;4.23;52.91;100513.41;1790590;80;20844;-71
2022/03/29 01:15:09;;;;;;;17.95;4.30;;;;;;;4.19;53.08;100490.60;1790387;79;20893;-72
2022/03/29 01:17:39;;;;;;;9.03;2.80;;;;;;;4.14;53.21;100510.23;1790632;80;20855;-74
2022/03/29 01:20:11;;;;;;;12.10;3.42;;;;;;;4.12;53.52;100511.19;1790480;79;21073;-74
2022/03/29 01:22:44;;;;;;;7.25;2.58;;;;;;;4.09;53.83;100501.77;1790296;80;20926;-74
2022/03/29 01:25:24;;;;;;;10.15;3.45;;;;;;;4.06;54.18;100474.61;1790477;80;20855;-75
2022/03/29 01:27:52;;;;;;;16.35;3.17;;;;;;;4.04;54.27;100500.22;1789578;79;20975;-74
2022/03/29 01:30:19;;;;;;;15.25;3.42;;;;;;;4.02;54.52;100492.94;1790473;80;21032;-73
2022/03/29 01:32:51;;;;;;;15.58;3.10;;;;;;;4.00;54.73;100486.49;1790611;80;21182;-71
2022/03/29 01:35:20;;;;;;;12.73;3.80;;;;;;;3.98;55.00;100506.48;1790407;80;20950;-71
2022/03/29 01:37:47;;;;;;;9.23;2.37;;;;;;;3.95;55.32;100500.09;1790457;78;21630;-72
2022/03/29 01:40:16;;;;;;;17.35;3.40;;;;;;;3.94;55.41;100496.66;1790759;78;20891;-71
2022/03/29 01:42:56;;;;;;;16.70;4.40;;;;;;;3.94;55.54;100473.77;1790537;79;20856;-72
2022/03/29 01:45:27;;;;;;;17.92;3.30;;;;;;;3.94;55.52;100480.25;1790244;79;21365;-72
2022/03/29 01:47:55;;;;;;;10.58;3.70;;;;;;;3.93;55.71;100484.59;1790345;79;20871;-72
2022/03/29 01:50:22;;;;;;;15.95;3.20;;;;;;;3.91;56.23;100476.02;1790595;80;20872;-72
2022/03/29 01:52:49;;;;;;;9.80;3.45;;;;;;;3.90;56.19;100476.06;1790616;80;21471;-71
2022/03/29 01:55:18;;;;;;;26.30;3.45;;;;;;;3.90;56.32;100466.98;1790450;80;21049;-73
2022/03/29 01:57:46;;;;;;;10.75;4.37;;;;;;;3.91;56.31;100461.75;1790436;80;21218;-72
2022/03/29 02:00:34;;;;;;;12.28;3.60;;;;;;;3.92;56.64;100465.19;1790710;80;20843;-75
2022/03/29 02:03:05;;;;;;;13.53;3.20;;;;;;;3.92;56.62;100468.62;1790397;80;21400;-75
2022/03/29 02:05:32;;;;;;;13.90;2.80;;;;;;;3.91;56.73;100451.38;1790407;80;21397;-73
2022/03/29 02:08:00;;;;;;;11.75;3.80;;;;;;;3.90;56.83;100463.93;1790402;80;20907;-73
2022/03/29 02:10:27;;;;;;;11.65;3.25;;;;;;;3.90;56.96;100459.20;1790648;80;21256;-73
2022/03/29 02:12:54;;;;;;;14.13;4.28;;;;;;;3.89;57.18;100466.14;1790314;78;20839;-72
2022/03/29 02:15:22;;;;;;;22.40;4.30;;;;;;;3.88;57.06;100470.91;1790447;80;20855;-72
2022/03/29 02:17:51;;;;;;;10.30;3.52;;;;;;;3.89;57.16;100458.78;1790447;78;20938;-73
2022/03/29 02:20:21;;;;;;;16.85;4.60;;;;;;;3.88;57.37;100468.78;1790489;80;21362;-74
2022/03/29 02:22:48;;;;;;;12.23;3.50;;;;;;;3.86;57.54;100444.18;1790387;79;21154;-73
2022/03/29 02:25:16;;;;;;;11.12;3.55;;;;;;;3.86;57.48;100469.28;1790250;80;20914;-74
2022/03/29 02:27:45;;;;;;;11.80;3.65;;;;;;;3.85;57.65;100436.02;1790490;79;20848;-73
2022/03/29 02:30:14;;;;;;;12.03;3.10;;;;;;;3.85;57.70;100455.93;1790811;79;21395;-73
2022/03/29 02:32:41;;;;;;;8.03;3.65;;;;;;;3.84;57.80;100443.38;1790535;79;21467;-72
2022/03/29 02:35:08;;;;;;;17.52;5.10;;;;;;;3.83;57.95;100444.76;1790569;80;21233;-72
2022/03/29 02:37:35;;;;;;;15.90;3.75;;;;;;;3.82;58.18;100457.31;1790513;79;20911;-72
2022/03/29 02:40:03;;;;;;;16.17;4.30;;;;;;;3.80;58.31;100435.34;1790471;80;21522;-72
2022/03/29 02:42:30;;;;;;;19.37;3.17;;;;;;;3.78;58.44;100447.94;1790418;79;20982;-73
2022/03/29 02:44:57;;;;;;;11.38;2.90;;;;;;;3.77;58.61;100425.52;1790914;78;20994;-72
2022/03/29 02:47:23;;;;;;;14.43;3.30;;;;;;;3.74;58.80;100432.50;1796267;80;21215;-73
2022/03/29 02:49:51;;;;;;;8.65;2.60;;;;;;;3.73;59.07;100429.95;1796206;80;21450;-71
2022/03/29 02:52:17;;;;;;;13.13;3.27;;;;;;;3.73;59.21;100433.84;1796619;80;20966;-73
2022/03/29 02:54:45;;;;;;;17.45;2.65;;;;;;;3.69;59.48;100424.47;1792731;78;20911;-73
2022/03/29 02:59:30;;;;;;;9.55;3.22;;;;;;;3.73;59.38;100416.55;1884116;75;22484;-72
2022/03/29 03:01:57;;;;;;;10.63;3.90;;;;;;;3.69;59.69;100417.98;1861058;77;21326;-71
2022/03/29 03:04:24;;;;;;;22.15;4.25;;;;;;;3.68;59.86;100408.06;1860815;77;21132;-73
2022/03/29 03:06:51;;;;;;;15.80;2.92;;;;;;;3.67;60.09;100406.39;1860603;77;20816;-72
2022/03/29 03:09:18;;;;;;;16.90;3.22;;;;;;;3.66;60.16;100418.94;1860788;77;20883;-72
2022/03/29 03:11:45;;;;;;;15.83;3.62;;;;;;;3.65;60.24;100401.70;1860667;77;20891;-73
2022/03/29 03:14:11;;;;;;;13.58;3.58;;;;;;;3.64;60.34;100410.82;1860806;77;21396;-71
2022/03/29 03:16:38;;;;;;;12.13;3.65;;;;;;;3.63;60.52;100418.22;1860782;77;21611;-71
2022/03/29 03:19:05;;;;;;;15.60;3.40;;;;;;;3.61;60.68;100416.97;1860580;77;20931;-71
2022/03/29 03:21:32;;;;;;;14.40;4.12;;;;;;;3.62;60.66;100404.84;1860966;77;21417;-71
2022/03/29 03:23:59;;;;;;;17.40;3.12;;;;;;;3.61;60.77;100422.16;1860724;77;20914;-73
2022/03/29 03:26:26;;;;;;;14.55;3.75;;;;;;;3.62;60.72;100421.70;1860778;77;20875;-73
2022/03/29 03:28:53;;;;;;;14.75;2.77;;;;;;;3.62;60.82;100412.63;1860657;77;21915;-71
2022/03/29 03:31:20;;;;;;;12.80;3.80;;;;;;;3.62;60.92;100411.33;1860645;77;20828;-73
2022/03/29 03:33:47;;;;;;;19.65;7.28;;;;;;;3.61;60.93;100394.92;1860734;77;21397;-72
2022/03/29 03:36:14;;;;;;;11.88;3.92;;;;;;;3.63;60.97;100400.07;1860728;76;20883;-72
2022/03/29 03:38:40;;;;;;;16.00;2.77;;;;;;;3.63;60.97;100399.61;1860664;76;21413;-74
2022/03/29 03:41:09;;;;;;;10.85;2.47;;;;;;;3.64;61.02;100407.77;1860725;76;21263;-73
2022/03/29 03:43:35;;;;;;;11.83;3.05;;;;;;;3.67;60.85;100410.73;1860816;76;20868;-72
2022/03/29 03:46:04;;;;;;;20.80;3.77;;;;;;;3.68;60.88;100396.40;1860729;76;20911;-72
2022/03/29 03:48:31;;;;;;;10.63;2.42;;;;;;;3.70;60.85;100419.23;1860697;77;21353;-72
2022/03/29 03:50:58;;;;;;;15.83;3.05;;;;;;;3.72;60.86;100397.98;1860740;77;20858;-71
2022/03/29 03:53:25;;;;;;;10.00;2.45;;;;;;;3.75;60.93;100416.48;1860755;77;21867;-73
2022/03/29 03:55:51;;;;;;;15.72;2.90;;;;;;;3.76;60.82;100416.02;1860578;76;20966;-72
2022/03/29 03:58:18;;;;;;;7.87;3.25;;;;;;;3.78;60.83;100403.85;1856505;77;20846;-74
2022/03/29 04:00:44;;;;;;;11.03;2.90;;;;;;;3.81;60.79;100411.55;1850056;77;20881;-72
2022/03/29 04:03:12;;;;;;;25.52;7.35;;;;;;;3.84;60.77;100425.23;1849883;77;21007;-73
2022/03/29 04:05:40;;;;;;;12.00;3.95;;;;;;;3.86;60.67;100416.11;1850554;77;21743;-71
2022/03/29 04:08:07;;;;;;;9.95;2.70;;;;;;;3.91;60.63;100415.05;1850329;77;20917;-71
2022/03/29 04:10:37;;;;;;;16.95;3.45;;;;;;;3.98;60.59;100409.63;1849502;77;20854;-73
2022/03/29 04:13:04;;;;;;;16.23;2.77;;;;;;;4.07;60.42;100404.97;1849548;77;20921;-74
2022/03/29 04:15:33;;;;;;;12.00;3.70;;;;;;;4.18;60.18;100414.95;1849380;77;20924;-73
2022/03/29 04:18:01;;;;;;;13.43;3.27;;;;;;;4.29;59.94;100405.02;1849215;77;21050;-73
2022/03/29 04:20:29;;;;;;;21.97;3.00;;;;;;;4.41;59.65;100418.44;1849208;77;21014;-72
2022/03/29 04:22:56;;;;;;;37.23;5.70;;;;;;;4.53;59.33;100408.88;1849310;77;22027;-72
2022/03/29 04:25:23;;;;;;;14.90;3.37;;;;;;;4.67;59.01;100415.69;1849219;76;21431;-71
2022/03/29 04:27:50;;;;;;;19.70;3.70;;;;;;;4.77;58.74;100414.41;1849238;77;21347;-73
2022/03/29 04:30:16;;;;;;;14.98;2.95;;;;;;;4.80;58.51;100404.34;1849378;77;21225;-72
2022/03/29 04:32:44;;;;;;;13.00;2.58;;;;;;;4.84;58.51;100411.58;1849290;77;21034;-73
2022/03/29 04:35:11;;;;;;;13.98;3.12;;;;;;;4.86;58.47;100402.81;1849540;77;21375;-72
2022/03/29 04:37:38;;;;;;;14.00;3.15;;;;;;;4.89;58.43;100401.84;1849280;77;20890;-73
2022/03/29 04:40:08;;;;;;;11.48;3.17;;;;;;;4.98;58.37;100403.63;1849360;77;20936;-72
2022/03/29 04:42:45;;;;;;;14.85;3.20;;;;;;;5.17;58.05;100397.67;1849705;76;21096;-73
2022/03/29 04:45:13;;;;;;;14.35;3.45;;;;;;;5.39;57.54;100398.93;1848658;77;20916;-72
2022/03/29 04:47:42;;;;;;;19.35;4.47;;;;;;;5.63;56.85;100390.55;1849300;77;20912;-73
2022/03/29 04:50:10;;;;;;;18.65;3.25;;;;;;;5.90;56.14;100409.30;1849602;77;20854;-72
2022/03/29 04:52:39;;;;;;;14.28;2.72;;;;;;;6.26;55.40;100388.23;1849293;77;20960;-72
2022/03/29 04:55:07;;;;;;;16.02;4.75;;;;;;;6.62;54.57;100389.56;1849309;77;21968;-73
2022/03/29 04:57:34;;;;;;;14.43;3.17;;;;;;;6.94;53.58;100399.77;1849218;76;20987;-74
2022/03/29 05:00:01;;;;;;;19.12;4.53;;;;;;;7.32;52.86;100393.59;1859740;75;20875;-74
2022/03/29 05:02:28;;;;;;;19.90;2.80;;;;;;;7.70;51.77;100380.36;1859964;77;21556;-72
2022/03/29 05:04:56;;;;;;;28.02;6.35;;;;;;;8.00;51.05;100388.33;1860100;76;20883;-74
2022/03/29 05:07:23;;;;;;;16.23;3.10;;;;;;;8.25;50.43;100377.43;1860213;77;21222;-72
2022/03/29 05:09:51;;;;;;;17.32;3.92;;;;;;;8.53;49.70;100382.47;1860069;76;21378;-73
2022/03/29 05:12:19;;;;;;;15.72;3.37;;;;;;;8.75;49.13;100363.34;1860060;77;20914;-72
2022/03/29 05:14:46;;;;;;;26.25;7.12;;;;;;;8.96;48.51;100374.38;1859967;77;21397;-73
2022/03/29 05:17:14;;;;;;;11.22;3.55;;;;;;;9.13;48.21;100370.30;1859946;77;20919;-72
2022/03/29 05:19:41;;;;;;;13.10;3.25;;;;;;;9.29;47.71;100357.19;1859845;77;21228;-72
2022/03/29 05:22:07;;;;;;;19.55;4.17;;;;;;;9.43;47.47;100354.22;1860296;77;20879;-72
2022/03/29 05:24:35;;;;;;;14.63;2.87;;;;;;;9.49;47.28;100359.93;1860073;77;20919;-72
2022/03/29 05:27:04;;;;;;;18.15;3.70;;;;;;;9.67;47.05;100369.77;1860060;77;21453;-73
2022/03/29 05:29:30;;;;;;;12.47;3.05;;;;;;;9.82;46.71;100363.21;1860336;76;21128;-73
2022/03/29 05:31:59;;;;;;;12.13;3.35;;;;;;;10.04;46.49;100381.08;1860102;77;21234;-73
2022/03/29 05:34:26;;;;;;;18.02;3.33;;;;;;;10.20;46.17;100363.45;1860008;77;20931;-74
2022/03/29 05:36:53;;;;;;;24.10;3.05;;;;;;;10.36;45.79;100353.73;1860063;77;20910;-73
2022/03/29 05:39:19;;;;;;;16.65;3.47;;;;;;;10.48;45.56;100372.25;1859953;77;21419;-73
2022/03/29 05:41:47;;;;;;;16.50;3.25;;;;;;;10.61;45.37;100363.97;1860065;76;20934;-73
2022/03/29 05:44:14;;;;;;;18.12;4.35;;;;;;;10.84;45.07;100374.27;1860264;76;21864;-74
2022/03/29 05:49:27;;;;;;;13.72;3.67;;;;;;;11.38;44.02;100367.64;1860008;77;20895;-72
2022/03/29 05:51:54;;;;;;;15.53;3.33;;;;;;;11.63;43.47;100379.11;1860282;77;20954;-73
2022/03/29 05:54:21;;;;;;;13.13;3.47;;;;;;;11.84;43.04;100363.64;1860123;77;21365;-73
2022/03/29 05:56:49;;;;;;;13.32;3.40;;;;;;;11.97;42.83;100363.66;1860050;77;21638;-75
2022/03/29 05:59:16;;;;;;;19.37;4.03;;;;;;;12.14;42.59;100372.97;1854006;76;20980;-74
2022/03/29 06:01:44;;;;;;;17.02;3.80;;;;;;;12.41;42.16;100368.40;1849129;77;20964;-73
2022/03/29 06:04:10;;;;;;;12.05;3.52;;;;;;;12.69;41.41;100382.66;1849435;77;20898;-76
2022/03/29 06:06:40;;;;;;;23.18;4.92;;;;;;;12.88;40.94;100371.16;1849274;77;20925;-73
2022/03/29 06:09:07;;;;;;;19.40;3.60;;;;;;;13.00;40.74;100364.97;1849179;77;21432;-73
2022/03/29 06:11:33;;;;;;;9.25;3.67;;;;;;;13.31;40.56;100377.19;1849250;77;20987;-73
2022/03/29 06:14:02;;;;;;;14.55;4.75;;;;;;;13.31;40.56;100377.19;1849310;77;20909;-73
2022/03/29 06:16:30;;;;;;;10.95;2.72;;;;;;;13.52;39.75;100383.97;1849248;77;20893;-72
2022/03/29 06:18:57;;;;;;;16.42;3.55;;;;;;;13.76;39.40;100392.25;1849480;77;20917;-74
2022/03/29 06:21:24;;;;;;;10.78;3.70;;;;;;;13.89;39.21;100381.98;1849229;76;21660;-73
2022/03/29 06:23:52;;;;;;;16.42;3.65;;;;;;;14.03;38.96;100382.21;1849217;77;21316;-74
2022/03/29 06:26:19;;;;;;;13.62;3.60;;;;;;;14.27;38.96;100404.95;1849538;77;20873;-74
2022/03/29 06:28:46;;;;;;;15.45;3.22;;;;;;;14.69;38.31;100405.99;1849166;77;20901;-74
2022/03/29 06:31:13;;;;;;;19.85;3.80;;;;;;;15.13;37.71;100409.45;1849278;77;21335;-74
2022/03/29 06:33:40;;;;;;;13.75;3.75;;;;;;;15.55;36.97;100416.09;1849106;77;21128;-74
2022/03/29 06:36:07;;;;;;;12.37;3.33;;;;;;;15.92;36.63;100418.30;1849185;77;21505;-74
2022/03/29 06:38:35;;;;;;;13.85;3.37;;;;;;;16.35;35.49;100410.59;1849119;77;20925;-74
2022/03/29 06:41:03;;;;;;;12.68;4.00;;;;;;;16.64;35.12;100399.23;1849013;77;20889;-74
2022/03/29 06:43:30;;;;;;;11.00;3.33;;;;;;;16.82;34.45;100395.95;1849230;77;20881;-74
2022/03/29 06:45:57;;;;;;;16.67;3.30;;;;;;;16.81;34.31;100391.16;1849126;77;21159;-73
2022/03/29 06:48:26;;;;;;;24.63;3.75;;;;;;;16.74;34.46;100379.37;1849156;77;21530;-73
2022/03/29 06:50:53;;;;;;;11.57;3.47;;;;;;;16.80;34.32;100373.57;1849148;76;20920;-73
2022/03/29 06:53:20;;;;;;;9.33;3.40;;;;;;;16.85;34.12;100383.28;1849208;77;20980;-75
2022/03/29 06:55:47;;;;;;;15.88;3.83;;;;;;;16.88;34.29;100368.92;1849498;77;20913;-75
2022/03/29 06:58:15;;;;;;;18.65;3.75;;;;;;;16.90;33.94;100355.88;1848886;77;21113;-75
2022/03/29 07:00:42;;;;;;;14.60;3.12;;;;;;;16.89;34.04;100354.19;1834822;77;20863;-75
2022/03/29 07:03:10;;;;;;;25.60;5.00;;;;;;;17.01;33.96;100359.34;1834726;78;21115;-74
2022/03/29 07:05:42;;;;;;;15.28;4.80;;;;;;;17.09;33.72;100366.95;1834661;76;21452;-75
2022/03/29 07:08:11;;;;;;;11.75;4.12;;;;;;;17.17;33.81;100356.98;1834797;76;20875;-73
2022/03/29 07:13:25;;;;;;;21.05;3.95;;;;;;;17.58;33.37;100345.66;1834612;77;20942;-75
2022/03/29 07:15:54;;;;;;;18.40;4.58;;;;;;;17.95;32.51;100356.81;1834686;77;20998;-75
2022/03/29 07:18:22;;;;;;;16.15;3.47;;;;;;;17.98;32.43;100340.58;1834574;78;20875;-76
2022/03/29 07:20:50;;;;;;;15.80;4.15;;;;;;;17.95;32.61;100340.89;1834827;77;20959;-72
2022/03/29 07:23:19;;;;;;;17.75;4.72;;;;;;;17.99;32.52;100347.08;1835885;77;21095;-73
2022/03/29 07:25:47;;;;;;;10.15;3.85;;;;;;;18.15;32.32;100337.14;1834653;77;20856;-73
2022/03/29 07:28:15;;;;;;;14.07;4.03;;;;;;;18.27;32.33;100333.78;1834275;77;20875;-75
2022/03/29 07:30:43;;;;;;;23.07;3.90;;;;;;;18.53;32.04;100331.75;1834746;77;20863;-75
2022/03/29 07:33:11;;;;;;;15.78;4.12;;;;;;;18.75;31.63;100323.83;1835092;77;20843;-74
2022/03/29 07:35:40;;;;;;;14.60;4.37;;;;;;;18.89;31.46;100319.81;1834660;77;21553;-76
2022/03/29 07:38:09;;;;;;;18.30;4.03;;;;;;;19.07;31.03;100323.28;1834614;77;20906;-73
2022/03/29 07:40:38;;;;;;;18.57;4.03;;;;;;;19.11;30.67;100329.95;1835005;77;20906;-75
2022/03/29 07:43:06;;;;;;;16.30;4.85;;;;;;;19.06;30.57;100332.25;1834677;76;20915;-76
2022/03/29 07:45:35;;;;;;;16.55;3.90;;;;;;;19.02;30.71;100322.41;1834812;77;20969;-74
2022/03/29 07:48:04;;;;;;;20.70;4.53;;;;;;;19.18;30.14;100328.84;1834850;77;21321;-75
2022/03/29 07:50:33;;;;;;;13.53;3.90;;;;;;;19.32;30.34;100319.47;1835078;77;21409;-75
2022/03/29 07:53:03;;;;;;;12.75;4.25;;;;;;;19.65;29.77;100316.50;1834761;77;20871;-73
2022/03/29 07:55:31;;;;;;;12.98;3.83;;;;;;;19.92;29.52;100310.19;1835237;77;21408;-74
2022/03/29 07:57:59;;;;;;;12.75;4.05;;;;;;;20.11;29.46;100309.58;1834913;77;21329;-75
2022/03/29 08:00:32;;;;;;;15.40;5.12;;;;;;;20.30;28.87;100302.66;1846159;77;21096;-76
2022/03/29 08:03:09;;;;;;;12.60;4.47;;;;;;;20.39;28.62;100313.66;1849920;77;20909;-74
2022/03/29 08:05:36;;;;;;;;;;;;;;;20.52;28.63;100312.33;1853060;77;20882;-75
2022/03/29 08:08:04;;;;;;;15.80;5.33;;;;;;;20.81;28.27;100303.89;1849492;77;20095;-74
2022/03/29 08:10:32;;;;;;;18.60;5.10;;;;;;;21.04;27.65;100309.39;1849237;77;21363;-75
2022/03/29 08:13:04;;;;;;;15.70;4.05;;;;;;;21.02;27.03;100310.89;1849323;77;20889;-75
2022/03/29 08:15:33;;;;;;;11.83;3.98;;;;;;;20.96;27.64;100296.89;1793284;80;21457;-75
2022/03/29 08:18:02;;;;;;;14.75;4.97;;;;;;;21.13;27.23;100306.22;1793373;80;21497;-75
2022/03/29 08:20:29;;;;;;;21.77;5.87;;;;;;;21.24;27.18;100299.20;1793322;78;20922;-74
2022/03/29 08:23:01;;;;;;;20.62;5.22;;;;;;;21.36;27.07;100298.34;1778294;80;20904;-75
2022/03/29 08:25:34;;;;;;;17.70;4.67;;;;;;;21.48;26.91;100299.69;1778415;80;21361;-74
2022/03/29 08:28:01;;;;;;;17.73;4.17;;;;;;;21.57;26.45;100288.49;1780014;80;21411;-74
2022/03/29 08:30:29;;;;;;;15.68;4.22;;;;;;;21.58;26.29;100290.97;1778390;80;21034;-72
2022/03/29 08:32:57;;;;;;;11.35;4.28;;;;;;;21.59;26.20;100266.44;1778342;80;21452;-74
2022/03/29 08:35:24;;;;;;;9.50;3.92;;;;;;;21.50;26.15;100271.83;1778348;79;20979;-75
2022/03/29 08:37:52;;;;;;;16.45;4.55;;;;;;;21.44;26.03;100261.01;1778338;79;20883;-77
2022/03/29 08:40:26;;;;;;;15.63;4.58;;;;;;;21.41;26.21;100265.34;1795397;79;20918;-75
2022/03/29 08:42:54;;;;;;;13.28;5.47;;;;;;;21.53;25.90;100256.80;1793305;79;20921;-74
2022/03/29 08:45:28;;;;;;;15.13;5.17;;;;;;;21.72;25.79;100257.38;1793343;78;20854;-76
2022/03/29 08:47:59;;;;;;;16.02;4.65;;;;;;;21.92;25.84;100248.44;1793315;78;20918;-75
2022/03/29 08:50:29;;;;;;;15.10;5.05;;;;;;;22.17;25.36;100248.33;1778297;80;21901;-75
2022/03/29 08:52:56;;;;;;;12.20;5.12;;;;;;;22.30;25.14;100246.76;1778240;80;20940;-74
2022/03/29 08:55:23;;;;;;;10.98;4.80;;;;;;;22.44;25.01;100241.14;1795800;80;20927;-75
2022/03/29 08:57:55;;;;;;;11.45;4.42;;;;;;;22.47;24.64;100259.48;1793322;78;20886;-75
2022/03/29 09:00:20;;;;;;;16.35;5.90;;;;;;;22.43;24.77;100243.47;1774793;80;20829;-74
2022/03/29 09:02:47;;;;;;;12.82;4.33;;;;;;;22.34;24.96;100233.37;1792946;79;21886;-74
2022/03/29 09:05:17;;;;;;;15.93;5.45;;;;;;;22.43;24.46;100238.64;1792870;78;20960;-74
2022/03/29 09:07:59;;;;;;;12.18;5.00;;;;;;;22.48;24.37;100241.11;1792558;78;20969;-76
2022/03/29 09:10:43;;;;;;;;;;;;;;;22.50;24.45;100228.41;1795726;80;20973;-75
2022/03/29 09:13:29;;;;;;;19.52;5.55;;;;;;;22.54;24.56;100232.39;1793008;80;20426;-74
2022/03/29 09:15:58;;;;;;;13.53;4.08;;;;;;;22.56;24.50;100224.17;1792923;80;21164;-75
2022/03/29 09:18:27;;;;;;;12.93;4.62;;;;;;;22.55;24.29;100215.84;1792964;80;20899;-74
2022/03/29 09:21:13;;;;;;;20.05;6.03;;;;;;;22.57;24.37;100215.16;1793226;80;20879;-73
2022/03/29 09:23:41;;;;;;;10.48;4.35;;;;;;;22.61;24.35;100219.13;1793121;80;20880;-74
2022/03/29 09:26:27;;;;;;;11.78;3.72;;;;;;;22.84;24.42;100215.07;1793082;80;20907;-74
2022/03/29 09:28:55;;;;;;;10.35;4.65;;;;;;;23.11;24.12;100210.15;1792940;80;21528;-75
2022/03/29 09:31:25;;;;;;;22.45;12.85;;;;;;;23.31;23.73;100218.45;1792960;80;20820;-73
2022/03/29 09:33:52;;;;;;;28.07;18.37;;;;;;;23.41;23.36;100220.84;1793333;80;20899;-74
2022/03/29 09:36:22;;;;;;;9.23;4.85;;;;;;;23.34;23.33;100224.27;1792219;80;20867;-74
2022/03/29 09:38:52;;;;;;;16.15;5.33;;;;;;;23.16;23.54;100215.77;1792991;80;20832;-73
2022/03/29 09:41:32;;;;;;;22.80;5.65;;;;;;;22.97;23.61;100213.94;1793274;80;21113;-73
2022/03/29 09:44:08;;;;;;;9.43;4.78;;;;;;;22.95;23.60;100209.27;1792948;80;20906;-73
2022/03/29 09:46:59;;;;;;;10.68;4.70;;;;;;;22.92;23.86;100206.13;1793129;80;20863;-74
2022/03/29 09:49:26;;;;;;;18.30;4.72;;;;;;;22.81;23.87;100200.73;1792757;80;20915;-75
2022/03/29 09:52:15;;;;;;;17.48;5.00;;;;;;;22.67;23.95;100202.35;1792259;80;20946;-75
2022/03/29 09:54:45;;;;;;;12.33;4.55;;;;;;;22.63;24.07;100190.87;1792890;80;21630;-74
2022/03/29 09:57:12;;;;;;;9.48;4.15;;;;;;;22.72;24.39;100180.41;1766838;80;20903;-74
2022/03/29 09:59:49;;;;;;;13.45;6.30;;;;;;;22.80;23.78;100188.37;1793501;79;20879;-74
2022/03/29 10:02:18;;;;;;;18.92;5.30;;;;;;;22.81;23.80;100175.82;1799698;79;20895;-73
2022/03/29 10:04:46;;;;;;;8.48;4.35;;;;;;;22.87;23.83;100179.93;1799864;79;21583;-74
2022/03/29 10:07:13;;;;;;;16.95;4.85;;;;;;;22.91;24.19;100173.72;1799819;79;21123;-74
2022/03/29 10:09:42;;;;;;;14.40;4.95;;;;;;;22.87;23.90;100168.41;1799588;79;21365;-75
2022/03/29 10:12:12;;;;;;;13.83;8.65;;;;;;;22.88;24.08;100168.75;1799857;79;20904;-75
2022/03/29 10:14:42;;;;;;;25.62;14.63;;;;;;;22.99;23.87;100166.95;1799736;79;20907;-74
2022/03/29 10:17:10;;;;;;;10.70;5.80;;;;;;;22.96;23.78;100165.97;1799839;79;20894;-74
2022/03/29 10:19:38;;;;;;;18.87;6.10;;;;;;;22.79;24.08;100156.45;1799686;79;21219;-74
2022/03/29 10:22:06;;;;;;;14.00;5.67;;;;;;;22.65;23.94;100153.58;1800067;79;20887;-74
2022/03/29 10:24:36;;;;;;;14.93;5.15;;;;;;;22.53;24.12;100156.39;1799836;79;20997;-74
2022/03/29 10:27:04;;;;;;;12.75;5.08;;;;;;;22.44;24.21;100154.81;1799787;79;20926;-74
2022/03/29 10:29:35;;;;;;;15.20;5.67;;;;;;;22.44;24.47;100159.64;1799651;79;21317;-75
2022/03/29 10:32:07;;;;;;;18.98;5.45;;;;;;;22.49;24.21;100151.91;1799742;79;21511;-73
2022/03/29 10:34:42;;;;;;;14.13;4.70;;;;;;;22.43;24.54;100161.97;1799949;79;21495;-74
2022/03/29 10:37:14;;;;;;;16.48;5.40;;;;;;;22.28;24.70;100154.45;1819674;79;20947;-72
2022/03/29 10:39:56;;;;;;;17.12;4.97;;;;;;;22.13;24.50;100149.02;1820918;78;20888;-71
2022/03/29 10:42:42;;;;;;;12.73;5.17;;;;;;;21.90;24.89;100143.18;1819493;79;20884;-75
2022/03/29 10:45:25;;;;;;;19.90;8.00;;;;;;;21.71;25.00;100151.12;1819318;79;21222;-75
2022/03/29 10:48:07;;;;;;;11.35;5.47;;;;;;;21.42;25.40;100132.30;1819498;79;20848;-74
2022/03/29 10:50:55;;;;;;;15.53;5.17;;;;;;;21.22;25.72;100134.02;1819317;79;20883;-74
2022/03/29 10:53:34;;;;;;;19.17;4.65;;;;;;;21.19;25.76;100132.18;1819503;78;20852;-73
2022/03/29 10:56:20;;;;;;;14.87;4.55;;;;;;;21.28;25.74;100123.98;1819322;79;21457;-76
2022/03/29 10:59:08;;;;;;;14.05;5.85;;;;;;;21.46;25.46;100120.27;1819484;79;21867;-74
2022/03/29 11:01:37;;;;;;;14.40;4.75;;;;;;;21.51;25.07;100128.58;1805842;78;21082;-72
2022/03/29 11:04:20;;;;;;;28.12;14.55;;;;;;;21.51;25.38;100120.05;1801303;79;20934;-75
2022/03/29 11:07:08;;;;;;;20.35;6.50;;;;;;;21.59;25.43;100115.67;1801291;78;20971;-73
2022/03/29 11:09:36;;;;;;;24.98;5.95;;;;;;;21.67;25.17;100112.45;1801283;78;22284;-75
2022/03/29 11:12:04;;;;;;;19.20;5.08;;;;;;;21.72;24.96;100107.91;1803721;78;21186;-75
2022/03/29 11:14:37;;;;;;;17.52;4.58;;;;;;;21.76;25.30;100105.73;1803386;78;20891;-75
2022/03/29 11:17:14;;;;;;;14.98;5.05;;;;;;;21.71;25.26;100103.59;1803633;78;20927;-74
2022/03/29 11:19:51;;;;;;;12.75;5.22;;;;;;;21.70;25.28;100100.62;1803409;79;21361;-76
2022/03/29 11:22:36;;;;;;;13.00;4.80;;;;;;;21.68;25.27;100098.11;1803491;79;21294;-75
2022/03/29 11:25:06;;;;;;;22.30;5.15;;;;;;;21.51;25.42;100097.89;1803717;78;22195;-75
2022/03/29 11:27:36;;;;;;;14.43;6.37;;;;;;;21.34;25.52;100091.77;1803495;79;21013;-75
2022/03/29 11:30:09;;;;;;;24.98;6.05;;;;;;;21.21;25.67;100080.84;1803377;79;20935;-74
2022/03/29 11:32:45;;;;;;;19.12;5.28;;;;;;;21.08;26.22;100083.58;1803547;78;20938;-77
2022/03/29 11:35:12;;;;;;;13.83;4.90;;;;;;;21.04;26.33;100080.11;1803472;78;21401;-75
2022/03/29 11:37:44;;;;;;;18.02;5.72;;;;;;;20.96;26.38;100090.79;1803717;79;21244;-73
2022/03/29 11:40:14;;;;;;;26.73;6.37;;;;;;;20.78;26.54;100078.52;1803414;79;20883;-74
2022/03/29 11:42:55;;;;;;;11.25;4.55;;;;;;;20.60;26.73;100073.92;1803918;78;20879;-73
2022/03/29 11:45:26;;;;;;;15.03;4.15;;;;;;;20.44;26.99;100072.09;1803401;78;20864;-73